Down Up Stop Top

TXC259
There are no active watches, warnings or advisories

Record high temperature 126.3°F Record low temperature 13.3°F Record high gust 49.5 mph Record high average 32.4 mph Record daily rain 4.23 in. Record low windchill 4.3°F Record high barometer 30.667 in. Record low barometer 28.496 in.
Daily high pressure 30.224 in. Daily low pressure 30.047 in. Daily low windchill 22.9°F Daily high heat index 33.8°F Daily high gust speed 7.6 mph NW Daily high average speed 6.4 mph NW
Welfare-Texas Weather
LAST READING AT TIME: 21:45 DATE: January 24 2015, time of next update: 21:50
Current WeatherNight time/Dry Current Temperature 30.0°F (-1.1°C), Apparent temp 22.7°F
Maximum Temperature (since midnight)33.8°F at: 00:00 Minimum Temperature (since midnight)29.5°F at: 04:04
Average windspeed (ten minute)6.4 mph Wind Direction (ten minute)NW (315°)
Windchill Temperature 23.5°F Maximum Gust (last hour)7.6 mph at: 20:44
Maximum Gust (since midnight)7.6 mph at: 00:01 Maximum 1 minute average (since midnight)6.4 mph at: 00:00
Rainfall (last hour)0.00 in. (0.0 mm) Rainfall (since midnight)0.00 in. (0.0 mm) ---
Rainfall This month 2.84 in. (72.2 mm) Rainfall To date this year 2.84 in. (72.2 mm)
Maximum rain per minute (last hour)0.00 in/min Maximum rain per hour (last 6 hours)0.00 in/hour
Yesterdays rainfall 0.28 in DewPoint 14.1°F (Wet Bulb :25.5°F )
Humidity 51 %, Humidex 22.9°F Barometer corrected to msl30.076 in. (1018.5 hPa)
Pressure change 0.00 in. (last hour) Trend (last hour)STEADY
Pressure change (last 12 hours)-0.15 in Pressure change (last 6 hours)+0.00 in

This page is updated from recent data collected by a WMR200 weather station Use the Reload or Refresh facility on your browser to retrieve the latest data.


Click here for the last 24 hour graph
Click here for the last 48 hour graph
Click here for the last 72 hour graph
Click here for the month to date graph


Weather report/warning/Metars

SAN ANTONIO INTERNATIONAL  AIRPORT , TX, United States (KSAT) 29-32N 098-28W 243M
Jan 24, 2015 - 09:51 PM EST / 2015.01.25 0251 UTC
Wind: from the SSW (200 degrees) at 7 MPH (6 KT):0
Visibility: 10 mile(s):0
Sky conditions: partly cloudy
Temperature: 53.1 F (11.7 C)
Dew Point: 35.1 F (1.7 C)
Relative Humidity: 50%
Pressure (altimeter): 30.12 in. Hg (1019 hPa)
Pressure tendency: 0.01 inches (0.3 hPa) lower than three hours ago
ob: KSAT 250251Z 20006KT 10SM SCT250 12/02 A3012 RMK AO2 SLP190 T01170017 55003
cycle: 3
NEW BRAUNFELS MUNICIPAL AIRPORT, TX, United States (KBAZ) 29-43N 98-03W 195M
Jan 24, 2015 - 09:51 PM EST / 2015.01.25 0251 UTC
Wind: from the SW (220 degrees) at 8 MPH (7 KT):0
Visibility: 10 mile(s):0
Sky conditions: clear
Temperature: 46.0 F (7.8 C)
Dew Point: 37.9 F (3.3 C)
Relative Humidity: 73%
Pressure (altimeter): 30.09 in. Hg (1018 hPa)
Pressure tendency: 0.01 inches (0.5 hPa) lower than three hours ago
ob: KBAZ 250251Z AUTO 22007KT 10SM CLR 08/03 A3009 RMK AO2 SLP191 T00780033 58005
cycle: 3
Kerrville, Kerrville Municipal Airport/Louis Schreiner Field, TX, United States (KERV) 29-58N 099-05W
Jan 24, 2015 - 10:15 PM EST / 2015.01.25 0315 UTC
Wind: Calm:0
Visibility: 10 mile(s):0
Sky conditions: clear
Temperature: 40.5 F (4.7 C)
Dew Point: 36.9 F (2.7 C)
Relative Humidity: 86%
Pressure (altimeter): 30.11 in. Hg (1019 hPa)
ob: KERV 250315Z AUTO 00000KT 10SM CLR 05/03 A3011 RMK AO2 T00470027
cycle: 3
BANGOR INT'L AIRPORT, ME, United States (KBGR) 44-48N 068-49W 57M
Jan 24, 2015 - 10:10 PM EST / 2015.01.25 0310 UTC
Wind: from the NNW (340 degrees) at 15 MPH (13 KT):0
Visibility: 7 mile(s):0
Sky conditions: overcast
Precipitation last hour: A trace
Temperature: 27.0 F (-2.8 C)
Windchill: 15 F (-9 C):1
Dew Point: 24.1 F (-4.4 C)
Relative Humidity: 88%
Pressure (altimeter): 29.08 in. Hg (984 hPa)
ob: KBGR 250310Z 34013KT 7SM FEW006 OVC055 M03/M04 A2908 RMK AO2 SNE00 P0000 T10281044
cycle: 3



The data is logged at two minute intervals, but there is data recorded every minute.

Use the RELOAD facility on your browser to retrieve the latest data.

Click here for a daily update of the averages/extremes to date for the month


Created by "Weather Display" software version 10.37R Build 23 at this start time/date 06:34 6/14/2014